Accueil
METAR-TAF:

METAR-TAF

Aéroports :

Saint Francis, Kansas, États-Unis

latitude: 39-45-40N, longitude: 101-47-45W, altitude: 1040 m

Observation

Le bulletin a été fait il y a 15 minutes, à 00:35 UTC
Vent 20 kt de est avec des rafales jusqu'à 26 kt
Température 20°C
Humidité 64%
Pression 1018 hPa
Visibilité: 16.1 km
Nuages épars à une hauteur de 6500 ft
Ciel couvert à une hauteur de 12000 ft

METAR: KSYF 030035Z AUTO 08020G26KT 10SM SCT065 OVC120 20/13 A3005 RMK AO2 T02020130 PWINO

Heure: 19:50 (00:50 UTC)


TAF: absent

Observations et prévisions météorologiques de plus de 4000 aéroports (messages METAR et TAF).

Les stations disponibles sont représentées par des disques jaunes et rouges sur la carte.

Passer la souris dessus pour voir le nom de la station.

Cliquer dessus pour voir les observations et prévisions météorologiques.

Pour changer de carte: cliquez sur les boutons verts avec une croix noire pour zoomer, sur le bouton vert avec un tiret pour effectuer un zoom arrière, ou sur les flèches vertes pour les cartes adjacentes.


METAR-TAF: